Time;durP1;ratioP1;P1;durP2;ratioP2;P2;SDS_P1;SDS_P2;PMS_P1;PMS_P2;Temp;Humidity;BMP_temperature;BMP_pressure;BME280_temperature;BME280_humidity;BME280_pressure;Samples;Min_cycle;Max_cycle;Signal;HPM_P1;HPM_P2
2023/08/25 00:00:39;;;;;;;8.70;4.60;;;26.50;88.50;;;;;;7380677;19;20046;-75
2023/08/25 00:03:08;;;;;;;8.73;5.22;;;26.50;88.40;;;;;;7379885;19;20007;-75
2023/08/25 00:05:38;;;;;;;14.80;5.22;;;26.50;88.60;;;;;;7380771;19;20011;-75
2023/08/25 00:08:08;;;;;;;11.68;5.55;;;26.40;88.80;;;;;;7399323;19;20003;-74
2023/08/25 00:10:37;;;;;;;6.55;4.47;;;26.40;88.90;;;;;;7379672;19;20062;-75
2023/08/25 00:13:09;;;;;;;8.20;4.70;;;26.40;89.90;;;;;;7379436;19;19999;-74
2023/08/25 00:15:37;;;;;;;7.63;4.80;;;26.40;89.10;;;;;;7379729;19;20011;-75
2023/08/25 00:18:07;;;;;;;10.32;6.35;;;26.40;89.10;;;;;;7379804;19;20390;-75
2023/08/25 00:20:36;;;;;;;15.68;9.20;;;26.40;89.00;;;;;;7380605;19;20007;-75
2023/08/25 00:23:05;;;;;;;11.60;6.18;;;26.30;89.00;;;;;;7401018;19;20358;-75
2023/08/25 00:25:33;;;;;;;18.88;10.82;;;26.20;89.10;;;;;;7377805;19;20014;-75
2023/08/25 00:28:02;;;;;;;12.70;7.93;;;26.20;89.50;;;;;;7379002;19;20316;-76
2023/08/25 00:30:34;;;;;;;7.93;5.35;;;26.20;89.80;;;;;;7379885;19;20007;-74
2023/08/25 00:33:02;;;;;;;9.40;5.32;;;26.20;89.80;;;;;;7379870;19;20010;-75
2023/08/25 00:35:31;;;;;;;10.57;5.13;;;26.10;90.00;;;;;;7379623;19;20018;-76
2023/08/25 00:38:01;;;;;;;8.13;4.78;;;26.10;90.10;;;;;;7401146;19;20579;-75
2023/08/25 00:40:29;;;;;;;9.13;4.50;;;26.10;90.20;;;;;;7379051;19;20007;-75
2023/08/25 00:42:58;;;;;;;13.00;4.43;;;26.20;90.20;;;;;;7378779;19;20010;-75
2023/08/25 00:45:28;;;;;;;9.38;4.90;;;26.20;89.90;;;;;;7379505;19;20388;-74
2023/08/25 00:47:59;;;;;;;8.40;5.20;;;26.20;89.80;;;;;;7379055;19;20011;-75
2023/08/25 00:50:31;;;;;;;9.02;4.97;;;26.20;89.60;;;;;;7379294;19;20014;-74
2023/08/25 00:53:01;;;;;;;8.13;5.03;;;26.20;89.50;;;;;;7400808;19;20017;-74
2023/08/25 00:55:30;;;;;;;7.90;4.53;;;26.20;89.70;;;;;;7378452;19;20074;-76
2023/08/25 00:57:59;;;;;;;11.05;5.03;;;26.20;89.70;;;;;;7378477;19;20239;-74
2023/08/25 01:00:28;;;;;;;8.98;5.50;;;26.20;89.80;;;;;;7379334;19;20074;-75
2023/08/25 01:03:01;;;;;;;8.25;5.20;;;26.20;89.90;;;;;;7379121;19;20007;-75
2023/08/25 01:05:30;;;;;;;7.07;5.05;;;26.10;89.80;;;;;;7379271;19;20059;-76
2023/08/25 01:07:59;;;;;;;7.65;4.85;;;26.10;90.00;;;;;;7400061;19;20007;-75
2023/08/25 01:10:32;;;;;;;7.45;4.75;;;26.10;90.00;;;;;;7378175;19;20227;-75
2023/08/25 01:13:05;;;;;;;13.65;4.90;;;26.10;90.00;;;;;;7378560;19;20003;-75
2023/08/25 01:15:38;;;;;;;15.95;4.93;;;26.10;90.10;;;;;;7378794;19;20002;-75
2023/08/25 01:18:15;;;;;;;10.20;4.78;;;26.10;89.70;;;;;;7378531;19;20382;-75
2023/08/25 01:20:45;;;;;;;6.45;4.72;;;26.10;89.80;;;;;;7384237;19;20010;-76
2023/08/25 01:23:19;;;;;;;9.75;4.63;;;26.10;89.80;;;;;;7391204;19;20006;-76
2023/08/25 01:25:50;;;;;;;9.38;4.60;;;26.10;89.80;;;;;;7405770;19;20014;-76
2023/08/25 01:28:22;;;;;;;11.73;5.00;;;26.10;89.80;;;;;;7384701;19;20002;-75
2023/08/25 01:30:54;;;;;;;12.43;4.97;;;26.00;89.50;;;;;;7385702;19;20013;-75
2023/08/25 01:33:23;;;;;;;7.70;5.15;;;26.10;89.50;;;;;;7385791;19;20015;-75
2023/08/25 01:36:03;;;;;;;8.73;5.75;;;26.10;89.70;;;;;;7385651;19;20117;-74
2023/08/25 01:38:36;;;;;;;8.45;6.13;;;26.00;89.90;;;;;;7387659;19;20002;-75
2023/08/25 01:41:14;;;;;;;11.02;5.72;;;26.00;89.80;;;;;;7411717;19;20011;-75
2023/08/25 01:43:47;;;;;;;12.63;5.65;;;26.00;90.00;;;;;;7389995;19;20023;-75
2023/08/25 01:46:18;;;;;;;9.27;5.25;;;25.90;90.00;;;;;;7390834;19;20397;-75
2023/08/25 01:48:50;;;;;;;10.10;5.30;;;26.00;89.60;;;;;;7387176;19;20285;-75
2023/08/25 01:51:19;;;;;;;9.38;4.68;;;26.00;89.40;;;;;;7385150;19;20341;-75
2023/08/25 01:53:52;;;;;;;8.55;4.25;;;26.00;89.60;;;;;;7386219;19;20003;-75
2023/08/25 01:56:24;;;;;;;5.25;4.53;;;26.00;89.90;;;;;;7386016;19;20031;-75
2023/08/25 01:58:52;;;;;;;9.98;4.78;;;26.00;89.70;;;;;;7405935;19;20059;-75
2023/08/25 02:01:22;;;;;;;8.43;4.60;;;26.00;89.40;;;;;;7384257;19;20070;-74
2023/08/25 02:03:52;;;;;;;16.83;4.80;;;26.00;89.30;;;;;;7384437;19;20002;-75
2023/08/25 02:06:21;;;;;;;9.77;5.22;;;26.00;89.10;;;;;;7382463;19;20006;-74
2023/08/25 02:08:49;;;;;;;11.38;4.35;;;26.00;89.30;;;;;;7384081;19;20007;-75
2023/08/25 02:11:18;;;;;;;8.50;4.85;;;25.90;89.40;;;;;;7384670;19;20077;-75
2023/08/25 02:13:50;;;;;;;8.07;5.13;;;25.90;89.50;;;;;;7405827;19;20206;-74
2023/08/25 02:16:18;;;;;;;8.10;5.22;;;25.80;89.70;;;;;;7383988;19;20010;-74
2023/08/25 02:18:47;;;;;;;9.52;4.38;;;25.80;89.90;;;;;;7384113;19;20160;-75
2023/08/25 02:21:16;;;;;;;9.38;5.03;;;25.80;90.30;;;;;;7384308;19;20263;-75
2023/08/25 02:23:45;;;;;;;7.57;4.75;;;25.80;89.80;;;;;;7384284;19;20054;-75
2023/08/25 02:26:13;;;;;;;9.73;5.30;;;25.80;90.00;;;;;;7396954;19;20015;-75
2023/08/25 02:28:42;;;;;;;8.80;5.80;;;25.70;90.40;;;;;;7404789;19;20010;-75
2023/08/25 02:31:14;;;;;;;8.40;5.35;;;25.60;90.10;;;;;;7382713;19;20082;-75
2023/08/25 02:33:44;;;;;;;8.70;5.38;;;25.50;90.30;;;;;;7383963;19;20007;-75
2023/08/25 02:36:13;;;;;;;8.20;5.65;;;25.40;90.50;;;;;;7383650;19;20002;-74
2023/08/25 02:38:41;;;;;;;11.60;6.50;;;25.40;90.80;;;;;;7383511;19;20058;-75
2023/08/25 02:41:10;;;;;;;8.30;5.43;;;25.20;91.30;;;;;;7405332;19;20011;-75
2023/08/25 02:43:39;;;;;;;10.27;5.90;;;25.10;91.80;;;;;;7383233;19;20028;-75
2023/08/25 02:46:08;;;;;;;10.63;5.88;;;25.00;92.00;;;;;;7382717;19;20398;-74
2023/08/25 02:48:39;;;;;;;12.63;6.07;;;25.10;92.00;;;;;;7382607;19;20059;-75
2023/08/25 02:51:07;;;;;;;;;;;25.10;92.00;;;;;;7383609;19;19998;-75
2023/08/25 02:53:36;;;;;;;14.43;5.95;;;25.10;92.00;;;;;;7382929;19;19922;-75
2023/08/25 02:56:05;;;;;;;9.68;6.15;;;25.10;91.80;;;;;;7404579;19;20014;-75
2023/08/25 02:58:34;;;;;;;10.43;5.47;;;25.20;91.70;;;;;;7382221;19;20406;-74
2023/08/25 03:01:03;;;;;;;14.68;5.78;;;25.30;91.60;;;;;;7382820;19;20394;-74
2023/08/25 03:03:32;;;;;;;7.70;5.60;;;25.30;91.50;;;;;;7381715;19;20003;-75
2023/08/25 03:06:06;;;;;;;7.80;4.97;;;25.40;91.70;;;;;;7382804;19;20094;-75
2023/08/25 03:08:35;;;;;;;8.18;5.40;;;25.40;91.50;;;;;;7382660;19;20099;-76
2023/08/25 03:11:05;;;;;;;11.68;4.97;;;25.50;91.40;;;;;;7404723;19;20114;-75
2023/08/25 03:13:34;;;;;;;8.32;5.38;;;25.50;91.20;;;;;;7381793;19;20073;-74
2023/08/25 03:16:02;;;;;;;8.45;5.25;;;25.60;91.10;;;;;;7382437;19;20020;-75
2023/08/25 03:18:31;;;;;;;8.20;5.40;;;25.60;91.00;;;;;;7382512;19;20012;-73
2023/08/25 03:21:02;;;;;;;10.20;5.30;;;25.70;91.00;;;;;;7382095;19;20020;-74
2023/08/25 03:23:31;;;;;;;8.73;5.13;;;25.70;91.00;;;;;;7382348;19;20019;-74
2023/08/25 03:26:00;;;;;;;15.07;4.97;;;25.70;90.90;;;;;;7401729;19;20024;-75
2023/08/25 03:28:29;;;;;;;9.20;5.18;;;25.80;90.90;;;;;;7385166;19;20014;-75
2023/08/25 03:30:58;;;;;;;8.23;5.38;;;25.80;90.80;;;;;;7383404;19;20016;-76
2023/08/25 03:33:26;;;;;;;13.82;6.32;;;25.80;90.80;;;;;;7386155;19;20271;-75
2023/08/25 03:35:55;;;;;;;32.45;23.00;;;25.90;90.90;;;;;;7386406;19;20374;-74
2023/08/25 03:38:26;;;;;;;30.50;21.80;;;25.90;91.30;;;;;;7385196;19;20007;-75
2023/08/25 03:40:59;;;;;;;;;;;25.90;91.50;;;;;;7404698;19;20066;-74
2023/08/25 03:43:28;;;;;;;15.93;8.88;;;25.90;91.50;;;;;;7378438;19;19903;-74
2023/08/25 03:45:57;;;;;;;15.18;6.40;;;25.90;91.60;;;;;;7381045;19;20071;-75
2023/08/25 03:48:27;;;;;;;9.48;6.00;;;25.90;91.50;;;;;;7381452;19;20011;-75
2023/08/25 03:50:56;;;;;;;12.60;7.13;;;26.00;91.40;;;;;;7380057;19;20059;-75
2023/08/25 03:53:27;;;;;;;13.60;7.25;;;26.00;91.40;;;;;;7381246;19;20035;-74
2023/08/25 03:55:56;;;;;;;10.55;6.97;;;26.00;91.70;;;;;;7402504;19;20014;-75
2023/08/25 03:58:25;;;;;;;14.38;6.63;;;26.00;91.50;;;;;;7385304;19;20014;-75
2023/08/25 04:00:55;;;;;;;15.27;6.25;;;26.00;91.50;;;;;;7380649;19;20003;-75
2023/08/25 04:03:24;;;;;;;10.75;6.10;;;26.00;91.40;;;;;;7380031;19;20037;-74
2023/08/25 04:05:53;;;;;;;16.67;8.68;;;26.00;91.30;;;;;;7380965;19;20014;-74
2023/08/25 04:08:21;;;;;;;12.20;6.93;;;26.00;91.50;;;;;;7380081;19;20038;-75
2023/08/25 04:10:53;;;;;;;13.80;7.13;;;25.90;91.60;;;;;;7399806;19;20039;-74
2023/08/25 04:13:22;;;;;;;11.85;6.82;;;25.90;91.70;;;;;;7380116;19;20066;-74
2023/08/25 04:15:57;;;;;;;15.70;8.73;;;25.90;91.80;;;;;;7379979;19;20011;-74
2023/08/25 04:18:26;;;;;;;17.73;10.55;;;25.80;91.90;;;;;;7380132;19;20014;-75
2023/08/25 04:20:54;;;;;;;17.05;10.02;;;25.80;92.00;;;;;;7380661;19;20023;-75
2023/08/25 04:23:24;;;;;;;19.95;11.57;;;25.70;92.10;;;;;;7381042;19;20071;-76
2023/08/25 04:25:56;;;;;;;26.50;14.10;;;25.70;92.40;;;;;;7400265;19;20014;-74
2023/08/25 04:28:25;;;;;;;23.00;14.40;;;25.60;92.40;;;;;;7379596;19;20054;-75
2023/08/25 04:30:55;;;;;;;26.77;14.13;;;25.50;92.60;;;;;;7379542;19;20007;-74
2023/08/25 04:33:23;;;;;;;33.42;14.90;;;25.40;92.80;;;;;;7379707;19;20007;-75
2023/08/25 04:35:52;;;;;;;17.88;12.05;;;25.40;92.90;;;;;;7379901;19;20018;-75
2023/08/25 04:38:21;;;;;;;22.85;11.65;;;25.40;92.90;;;;;;7379718;19;20082;-75
2023/08/25 04:40:49;;;;;;;23.45;12.93;;;25.30;92.80;;;;;;7399577;19;20027;-74
2023/08/25 04:43:21;;;;;;;26.48;13.95;;;25.40;92.80;;;;;;7379008;19;20086;-75
2023/08/25 04:45:49;;;;;;;;;;;25.40;92.80;;;;;;7380130;19;20032;-75
2023/08/25 04:48:18;;;;;;;33.95;18.33;;;25.40;92.90;;;;;;7380061;19;19963;-74
2023/08/25 04:50:46;;;;;;;29.50;18.13;;;25.20;93.10;;;;;;7377961;19;20291;-76
2023/08/25 04:53:18;;;;;;;35.75;21.08;;;25.20;93.20;;;;;;7378887;19;20006;-75
2023/08/25 04:55:47;;;;;;;;;;;25.10;93.40;;;;;;7400183;19;20081;-75
2023/08/25 04:58:15;;;;;;;50.33;23.15;;;25.20;93.50;;;;;;7378488;19;19970;-75
2023/08/25 05:00:46;;;;;;;46.35;24.25;;;25.10;93.60;;;;;;7379015;19;20058;-75
2023/08/25 05:03:15;;;;;;;;;;;25.10;93.70;;;;;;7379594;19;20078;-74
2023/08/25 05:05:44;;;;;;;51.70;25.00;;;25.10;93.80;;;;;;7378797;19;19924;-74
2023/08/25 05:08:12;;;;;;;43.13;24.60;;;25.10;93.80;;;;;;7400380;19;20031;-75
2023/08/25 05:10:41;;;;;;;58.42;25.20;;;25.10;94.00;;;;;;7377033;19;20114;-75
2023/08/25 05:13:10;;;;;;;62.58;28.23;;;25.10;94.00;;;;;;7378298;19;20010;-74
2023/08/25 05:15:41;;;;;;;65.00;32.25;;;24.90;94.20;;;;;;7378052;19;20011;-74
2023/08/25 05:18:13;;;;;;;59.92;31.60;;;24.90;94.40;;;;;;7378641;19;20275;-75
2023/08/25 05:20:41;;;;;;;;;;;25.00;94.40;;;;;;7382429;19;20011;-75
2023/08/25 05:23:10;;;;;;;83.38;37.15;;;25.00;94.60;;;;;;7402684;19;19911;-74
2023/08/25 05:25:39;;;;;;;73.15;37.10;;;24.90;95.10;;;;;;7379449;19;20263;-74
2023/08/25 05:28:08;;;;;;;80.38;37.22;;;24.90;94.80;;;;;;7380433;19;20403;-75
2023/08/25 05:30:37;;;;;;;84.63;37.53;;;25.00;94.80;;;;;;7378610;19;20020;-76
2023/08/25 05:33:06;;;;;;;86.03;37.97;;;25.00;94.90;;;;;;7378122;19;20006;-74
2023/08/25 05:35:38;;;;;;;86.07;42.05;;;25.10;94.80;;;;;;7378387;19;20101;-73
2023/08/25 05:38:07;;;;;;;94.07;41.92;;;25.10;94.70;;;;;;7399297;19;20410;-74
2023/08/25 05:40:35;;;;;;;105.85;45.72;;;25.10;94.70;;;;;;7376918;19;20280;-74
2023/08/25 05:43:04;;;;;;;112.20;45.42;;;25.20;94.70;;;;;;7377201;19;20066;-73
2023/08/25 05:45:33;;;;;;;99.55;45.63;;;25.20;94.60;;;;;;7377607;19;19999;-74
2023/08/25 05:48:02;;;;;;;104.43;47.85;;;25.30;94.70;;;;;;7377879;19;20070;-74
2023/08/25 05:50:31;;;;;;;108.32;48.67;;;25.30;94.70;;;;;;7377138;19;20023;-74
2023/08/25 05:53:03;;;;;;;126.10;51.65;;;25.30;94.70;;;;;;7399051;19;20044;-74
2023/08/25 05:55:32;;;;;;;127.88;52.53;;;25.30;94.70;;;;;;7377072;19;20006;-74
2023/08/25 05:58:00;;;;;;;119.25;53.35;;;25.30;94.70;;;;;;7377001;19;20319;-74
2023/08/25 06:00:29;;;;;;;143.20;57.28;;;25.30;95.10;;;;;;7377082;19;20016;-74
2023/08/25 06:02:58;;;;;;;131.52;57.05;;;25.40;95.20;;;;;;7377504;19;20020;-74
2023/08/25 06:05:26;;;;;;;149.63;58.35;;;25.30;94.80;;;;;;7377352;19;20011;-74
2023/08/25 06:07:55;;;;;;;148.02;61.80;;;25.20;95.00;;;;;;7405513;19;20036;-74
2023/08/25 06:10:26;;;;;;;160.43;62.97;;;25.10;95.20;;;;;;7382550;19;20066;-76
2023/08/25 06:12:55;;;;;;;147.55;62.80;;;25.10;95.60;;;;;;7384151;19;20281;-74
2023/08/25 06:15:25;;;;;;;137.90;61.95;;;25.10;95.20;;;;;;7384473;19;20006;-74
2023/08/25 06:17:54;;;;;;;146.20;60.83;;;25.00;95.20;;;;;;7384634;19;20073;-74
2023/08/25 06:20:23;;;;;;;140.55;59.38;;;24.90;95.20;;;;;;7381493;19;20644;-74
2023/08/25 06:22:52;;;;;;;138.52;59.10;;;24.90;95.40;;;;;;7405744;19;20003;-74
2023/08/25 06:25:22;;;;;;;133.15;58.40;;;24.90;95.40;;;;;;7381814;19;20011;-74
2023/08/25 06:27:54;;;;;;;121.22;55.17;;;24.90;95.40;;;;;;7383941;19;19998;-74
2023/08/25 06:30:23;;;;;;;134.65;58.20;;;24.80;95.30;;;;;;7383124;19;20007;-74
2023/08/25 06:32:52;;;;;;;137.35;59.15;;;24.70;95.40;;;;;;7383438;19;20002;-75
2023/08/25 06:35:22;;;;;;;134.60;56.88;;;24.40;95.70;;;;;;7383646;19;20027;-74
2023/08/25 06:37:52;;;;;;;129.23;55.08;;;24.40;95.80;;;;;;7404924;19;20019;-74
2023/08/25 06:40:21;;;;;;;129.38;56.83;;;24.50;95.90;;;;;;7382997;19;20061;-74
2023/08/25 06:42:49;;;;;;;128.80;53.25;;;24.50;95.60;;;;;;7383400;19;20010;-74
2023/08/25 06:45:21;;;;;;;127.53;54.70;;;24.50;95.80;;;;;;7383356;19;20019;-74
2023/08/25 06:47:50;;;;;;;117.50;53.55;;;24.60;95.60;;;;;;7383452;19;20010;-74
2023/08/25 06:50:19;;;;;;;110.13;51.10;;;24.60;95.70;;;;;;7382396;19;20402;-74
2023/08/25 06:52:48;;;;;;;109.93;49.78;;;24.70;95.50;;;;;;7404561;19;20003;-74
2023/08/25 06:55:18;;;;;;;102.78;49.08;;;24.80;95.40;;;;;;7382167;19;20002;-74
2023/08/25 06:57:48;;;;;;;109.15;48.63;;;24.60;95.40;;;;;;7382679;19;20461;-74
2023/08/25 07:00:21;;;;;;;112.35;47.60;;;24.60;95.50;;;;;;7382890;19;20027;-73
2023/08/25 07:02:49;;;;;;;100.13;45.55;;;24.50;95.40;;;;;;7382806;19;20268;-77
2023/08/25 07:05:18;;;;;;;95.72;44.45;;;24.60;95.40;;;;;;7385315;19;20020;-79
2023/08/25 07:07:47;;;;;;;105.25;47.05;;;24.80;95.30;;;;;;7409032;19;20039;-78
2023/08/25 07:10:16;;;;;;;97.70;44.85;;;24.80;95.00;;;;;;7386214;19;20006;-80
2023/08/25 07:12:45;;;;;;;99.35;44.67;;;24.90;94.90;;;;;;7389847;19;20018;-79
2023/08/25 07:15:14;;;;;;;90.10;43.63;;;24.80;94.80;;;;;;7391974;19;20009;-80
2023/08/25 07:17:45;;;;;;;90.15;42.78;;;24.90;94.80;;;;;;7399264;19;20035;-78
2023/08/25 07:20:14;;;;;;;;;;;24.80;94.80;;;;;;7394491;19;20014;-77
2023/08/25 07:22:42;;;;;;;97.03;43.53;;;24.80;94.70;;;;;;7415902;19;19911;-77
2023/08/25 07:25:11;;;;;;;95.55;43.83;;;24.80;94.70;;;;;;7389447;19;20007;-77
2023/08/25 07:27:40;;;;;;;89.53;42.75;;;24.90;94.60;;;;;;7386777;19;20323;-77
2023/08/25 07:30:11;;;;;;;83.90;41.17;;;24.90;94.50;;;;;;7386523;19;20350;-78
2023/08/25 07:32:42;;;;;;;;;;;24.90;94.40;;;;;;7387470;19;20014;-75
2023/08/25 07:35:18;;;;;;;73.75;35.25;;;24.90;94.40;;;;;;7385110;19;19928;-75
2023/08/25 07:37:47;;;;;;;68.47;36.28;;;24.90;94.30;;;;;;7405247;19;20010;-77
2023/08/25 07:40:15;;;;;;;75.65;36.58;;;24.70;94.40;;;;;;7385305;19;20242;-80
2023/08/25 07:42:44;;;;;;;70.85;35.60;;;24.80;94.40;;;;;;7384638;19;20006;-77
2023/08/25 07:45:13;;;;;;;73.00;36.83;;;24.90;94.30;;;;;;7384280;19;20003;-79
2023/08/25 07:47:42;;;;;;;66.80;34.10;;;24.90;94.10;;;;;;7384018;19;20023;-76
2023/08/25 07:50:14;;;;;;;70.13;33.28;;;25.00;94.10;;;;;;7384406;19;20010;-76
2023/08/25 07:52:43;;;;;;;71.05;33.08;;;24.90;94.10;;;;;;7406991;19;20030;-76
2023/08/25 07:55:14;;;;;;;56.55;30.48;;;24.80;94.00;;;;;;7387019;19;20327;-80
2023/08/25 07:57:43;;;;;;;54.38;27.98;;;25.00;94.10;;;;;;7386557;19;20028;-77
2023/08/25 08:00:15;;;;;;;56.03;26.58;;;24.70;94.10;;;;;;7386996;19;20019;-79
2023/08/25 08:02:45;;;;;;;45.47;25.15;;;24.80;94.30;;;;;;7387256;19;20019;-79
2023/08/25 08:05:17;;;;;;;37.08;21.75;;;24.70;94.40;;;;;;7386385;19;20353;-80
2023/08/25 08:07:47;;;;;;;34.47;16.83;;;24.80;94.40;;;;;;7409752;19;20018;-81
2023/08/25 08:10:17;;;;;;;22.35;12.65;;;24.60;94.40;;;;;;7385441;19;20006;-77
2023/08/25 08:12:46;;;;;;;15.23;9.05;;;24.40;94.80;;;;;;7390787;19;20014;-79
2023/08/25 08:15:15;;;;;;;18.55;8.50;;;24.10;94.50;;;;;;7386308;19;20003;-78
2023/08/25 08:17:44;;;;;;;12.00;7.43;;;24.10;94.60;;;;;;7385302;19;20014;-78
2023/08/25 08:20:16;;;;;;;12.85;7.28;;;24.20;94.50;;;;;;7382774;19;20014;-78
2023/08/25 08:22:45;;;;;;;12.57;7.25;;;24.20;94.30;;;;;;7405642;19;20009;-79
2023/08/25 08:25:16;;;;;;;12.77;6.35;;;24.30;94.10;;;;;;7383394;19;20239;-78
2023/08/25 08:27:45;;;;;;;10.98;6.00;;;24.30;94.10;;;;;;7385403;19;20002;-77
2023/08/25 08:30:16;;;;;;;9.85;4.93;;;24.30;94.00;;;;;;7381928;19;20023;-77
2023/08/25 08:32:45;;;;;;;8.38;5.70;;;24.20;94.00;;;;;;7382481;19;20007;-77
2023/08/25 08:35:17;;;;;;;9.30;4.68;;;24.40;93.70;;;;;;7382271;19;20023;-78
2023/08/25 09:06:33;;;;;;;5.40;2.40;;;23.50;93.60;;;;;;7378758;19;20248;-79
2023/08/25 09:09:08;;;;;;;8.55;1.95;;;23.60;93.60;;;;;;7379610;19;20003;-77
2023/08/25 09:11:37;;;;;;;7.93;3.00;;;23.80;93.50;;;;;;7377504;19;20017;-77
2023/08/25 09:14:07;;;;;;;4.70;2.15;;;24.00;93.20;;;;;;7401845;19;20014;-77
2023/08/25 09:16:38;;;;;;;9.18;2.10;;;24.20;93.00;;;;;;7381804;19;20006;-77
2023/08/25 09:19:08;;;;;;;8.80;2.78;;;24.20;92.80;;;;;;7382833;19;20367;-76
2023/08/25 09:21:40;;;;;;;6.07;2.70;;;24.10;92.50;;;;;;7383267;19;19998;-76
2023/08/25 09:24:09;;;;;;;5.38;2.40;;;24.20;92.40;;;;;;7383922;19;20003;-76
2023/08/25 09:26:43;;;;;;;5.50;2.20;;;24.30;92.40;;;;;;7383771;19;20070;-79
2023/08/25 09:29:12;;;;;;;5.07;2.40;;;24.40;92.20;;;;;;7380083;19;20462;-75
2023/08/25 09:31:47;;;;;;;4.85;2.30;;;24.40;92.00;;;;;;7402042;19;20011;-78
2023/08/25 09:37:22;;;;;;;4.80;2.35;;;24.50;92.00;;;;;;7380228;19;20006;-80
2023/08/25 09:39:50;;;;;;;8.43;2.00;;;24.50;91.80;;;;;;7378648;19;20010;-75
2023/08/25 09:42:20;;;;;;;5.32;2.20;;;24.60;91.80;;;;;;7384986;19;20078;-74
2023/08/25 09:44:50;;;;;;;3.13;2.08;;;24.60;91.60;;;;;;7385369;19;20003;-77
2023/08/25 09:47:19;;;;;;;7.80;2.70;;;24.50;91.40;;;;;;7385655;19;20010;-78
2023/08/25 09:49:47;;;;;;;11.07;2.60;;;24.50;91.40;;;;;;7405433;19;20288;-78
2023/08/25 09:52:21;;;;;;;8.20;2.75;;;24.50;91.10;;;;;;7384388;19;20078;-77
2023/08/25 09:54:52;;;;;;;7.75;2.30;;;24.50;91.20;;;;;;7385409;19;20023;-77
2023/08/25 09:57:21;;;;;;;9.50;2.65;;;24.60;91.30;;;;;;7384788;19;20380;-76
2023/08/25 09:59:50;;;;;;;13.45;2.90;;;24.70;91.20;;;;;;7385180;19;20011;-78
2023/08/25 10:02:20;;;;;;;18.88;7.95;;;24.70;91.00;;;;;;7387607;19;20023;-78
2023/08/25 10:04:49;;;;;;;13.63;4.32;;;24.90;91.00;;;;;;7406637;19;20253;-77
2023/08/25 10:07:18;;;;;;;12.95;5.05;;;24.90;90.90;;;;;;7386916;19;20390;-77
2023/08/25 10:09:50;;;;;;;10.73;3.20;;;24.90;90.70;;;;;;7386221;19;20032;-77
2023/08/25 10:12:23;;;;;;;10.20;3.17;;;25.00;90.70;;;;;;7386641;19;20097;-81
2023/08/25 10:18:13;;;;;;;8.60;3.95;;;24.60;90.60;;;;;;7386491;19;20165;-81
2023/08/25 10:20:45;;;;;;;7.00;3.90;;;24.60;90.90;;;;;;7387715;19;20023;-79
2023/08/25 10:23:15;;;;;;;17.60;3.60;;;24.40;91.00;;;;;;7384189;19;20027;-79
2023/08/25 10:25:46;;;;;;;15.32;4.18;;;24.60;91.00;;;;;;7406776;19;20015;-78
2023/08/25 10:28:16;;;;;;;10.13;3.70;;;24.70;90.80;;;;;;7386299;19;20017;-79
2023/08/25 10:30:45;;;;;;;9.80;3.97;;;24.70;90.70;;;;;;7384836;19;20007;-77
2023/08/25 10:33:16;;;;;;;12.43;4.22;;;24.90;90.60;;;;;;7384353;19;20003;-78
2023/08/25 10:49:47;;;;;;;19.08;5.00;;;25.00;90.20;;;;;;7413585;19;20356;-77
2023/08/25 10:52:19;;;;;;;19.42;5.15;;;24.90;89.90;;;;;;7416700;19;20366;-77
2023/08/25 10:54:49;;;;;;;14.25;4.80;;;24.70;90.50;;;;;;7416595;19;20015;-77
2023/08/25 11:00:43;;;;;;;12.02;5.22;;;24.70;90.00;;;;;;7420872;19;20014;-80
2023/08/25 11:06:45;;;;;;;12.85;5.55;;;24.70;90.00;;;;;;7428154;19;20011;-83
2023/08/25 11:09:35;;;;;;;13.63;5.25;;;24.70;90.00;;;;;;7427302;19;20010;-81
2023/08/25 11:12:08;;;;;;;19.15;5.45;;;24.90;89.70;;;;;;7428141;19;20027;-84
2023/08/25 11:14:38;;;;;;;11.20;5.88;;;24.90;89.40;;;;;;7438084;19;20018;-82
2023/08/25 11:17:11;;;;;;;19.80;6.30;;;25.00;89.20;;;;;;7462179;19;20006;-82
2023/08/25 11:19:42;;;;;;;16.38;7.20;;;25.10;88.60;;;;;;7442048;19;20023;-80
2023/08/25 11:22:14;;;;;;;;;;;25.20;88.50;;;;;;7441417;19;20015;-77
2023/08/25 11:24:43;;;;;;;25.00;11.07;;;25.20;88.50;;;;;;7432649;19;19915;-80
2023/08/25 11:27:14;;;;;;;27.20;13.00;;;25.20;88.10;;;;;;7421434;19;20103;-79
2023/08/25 11:29:44;;;;;;;27.75;14.65;;;25.10;88.30;;;;;;7418521;19;20010;-78
2023/08/25 11:32:14;;;;;;;27.02;13.43;;;25.00;88.60;;;;;;7416934;19;20093;-77
2023/08/25 11:34:43;;;;;;;27.13;13.77;;;24.90;88.60;;;;;;7439878;19;20002;-78
2023/08/25 11:37:16;;;;;;;31.98;14.52;;;24.90;88.60;;;;;;7417796;19;20014;-77
2023/08/25 11:39:46;;;;;;;28.88;13.85;;;25.10;88.20;;;;;;7419266;19;20006;-81
2023/08/25 11:42:14;;;;;;;30.20;13.07;;;25.30;89.00;;;;;;7416726;19;20207;-77
2023/08/25 11:44:46;;;;;;;22.63;11.52;;;25.40;87.20;;;;;;7417702;19;20062;-81
2023/08/25 11:47:15;;;;;;;26.88;12.75;;;25.50;86.90;;;;;;7417300;19;20007;-78
2023/08/25 11:49:44;;;;;;;20.67;11.38;;;25.60;86.50;;;;;;7419531;19;20223;-77
2023/08/25 11:52:15;;;;;;;19.52;11.40;;;25.70;86.50;;;;;;7386929;19;20006;-76
2023/08/25 11:54:48;;;;;;;21.15;11.18;;;25.70;85.20;;;;;;7387528;19;20020;-77
2023/08/25 11:57:18;;;;;;;12.27;7.90;;;25.80;85.20;;;;;;7387333;19;20003;-77
2023/08/25 11:59:49;;;;;;;17.20;8.77;;;25.80;84.50;;;;;;7387411;19;20269;-77
2023/08/25 12:02:19;;;;;;;16.38;7.38;;;25.70;84.10;;;;;;7386563;19;20002;-77
2023/08/25 12:04:57;;;;;;;13.80;7.28;;;25.80;84.70;;;;;;7407445;19;20358;-76
2023/08/25 12:07:29;;;;;;;15.55;6.97;;;25.80;84.60;;;;;;7385693;19;20011;-78
2023/08/25 12:09:59;;;;;;;19.13;8.40;;;25.70;84.30;;;;;;7386980;19;20016;-76
2023/08/25 12:12:32;;;;;;;20.90;8.30;;;25.70;84.10;;;;;;7389228;19;20418;-76
2023/08/25 12:15:00;;;;;;;19.85;8.98;;;25.60;84.40;;;;;;7387390;19;20011;-76
2023/08/25 12:17:30;;;;;;;21.05;8.75;;;25.70;85.00;;;;;;7386129;19;20016;-76
2023/08/25 12:20:02;;;;;;;19.33;8.40;;;25.70;84.90;;;;;;7405215;19;20002;-77
2023/08/25 12:22:34;;;;;;;16.15;8.00;;;25.70;84.60;;;;;;7384650;19;20548;-77
2023/08/25 12:25:03;;;;;;;20.58;7.57;;;25.80;84.50;;;;;;7385329;19;20010;-76
2023/08/25 12:27:32;;;;;;;20.13;7.53;;;25.90;84.20;;;;;;7385411;19;20386;-77
2023/08/25 12:30:01;;;;;;;12.98;7.82;;;25.90;84.20;;;;;;7385094;19;20382;-77
2023/08/25 12:32:30;;;;;;;18.63;6.72;;;26.00;84.60;;;;;;7384019;19;20278;-78
2023/08/25 12:34:58;;;;;;;13.73;6.82;;;26.00;84.40;;;;;;7405269;19;20006;-78
2023/08/25 12:37:29;;;;;;;15.40;6.72;;;26.00;84.30;;;;;;7383682;19;20015;-77
2023/08/25 12:40:01;;;;;;;21.52;7.03;;;25.90;84.60;;;;;;7385331;19;20003;-76
2023/08/25 12:42:29;;;;;;;;;;;26.00;84.40;;;;;;7386164;19;20024;-77
2023/08/25 12:44:58;;;;;;;14.05;6.13;;;26.10;84.50;;;;;;7384111;19;20266;-76
2023/08/25 12:47:28;;;;;;;23.55;6.35;;;26.10;83.80;;;;;;7384845;19;20383;-76
2023/08/25 12:49:56;;;;;;;15.07;6.25;;;26.10;84.20;;;;;;7406635;19;20028;-78
2023/08/25 12:52:27;;;;;;;16.77;6.28;;;26.10;84.40;;;;;;7384824;19;20450;-77
2023/08/25 12:54:56;;;;;;;;;;;26.10;84.20;;;;;;7385096;19;20014;-76
2023/08/25 12:57:27;;;;;;;13.25;5.15;;;25.90;84.30;;;;;;7384785;19;19911;-76
2023/08/25 12:59:56;;;;;;;18.23;4.93;;;25.70;85.00;;;;;;7382348;19;20318;-75
2023/08/25 13:02:28;;;;;;;12.68;4.40;;;25.70;85.20;;;;;;7382012;19;20363;-77
2023/08/25 13:04:58;;;;;;;9.93;4.28;;;25.70;85.30;;;;;;7405352;19;20010;-76
2023/08/25 13:07:29;;;;;;;15.05;4.63;;;25.50;85.60;;;;;;7384339;19;20082;-79
2023/08/25 13:10:05;;;;;;;;;;;25.40;85.40;;;;;;7389821;19;20014;-80
2023/08/25 13:12:36;;;;;;;12.38;4.32;;;25.50;85.80;;;;;;7383359;19;19910;-76
2023/08/25 13:15:07;;;;;;;12.93;3.83;;;25.30;85.80;;;;;;7381615;19;20070;-77
2023/08/25 13:17:37;;;;;;;9.57;3.75;;;25.30;86.10;;;;;;7392472;19;20393;-78
2023/08/25 13:20:11;;;;;;;14.45;4.53;;;25.30;85.80;;;;;;7428001;19;20043;-78
2023/08/25 13:22:43;;;;;;;11.40;4.10;;;25.10;85.80;;;;;;7390263;19;20009;-79
2023/08/25 13:25:12;;;;;;;13.25;4.18;;;24.90;86.40;;;;;;7393418;19;20268;-78
2023/08/25 13:27:43;;;;;;;12.13;4.40;;;24.90;86.90;;;;;;7387662;19;20006;-77
2023/08/25 13:30:13;;;;;;;11.60;4.05;;;24.70;86.50;;;;;;7386272;19;20014;-77
2023/08/25 13:32:44;;;;;;;9.95;3.88;;;24.80;86.70;;;;;;7386508;19;20239;-79
2023/08/25 13:35:13;;;;;;;14.65;4.25;;;24.90;86.40;;;;;;7387469;19;20211;-79
2023/08/25 13:37:41;;;;;;;19.77;4.72;;;24.90;86.30;;;;;;7406871;19;20015;-76
2023/08/25 13:40:13;;;;;;;18.67;4.75;;;25.10;86.30;;;;;;7384944;19;20012;-79
2023/08/25 13:42:45;;;;;;;13.18;4.38;;;25.00;85.90;;;;;;7387319;19;20390;-79
2023/08/25 13:45:14;;;;;;;17.02;4.25;;;25.00;86.00;;;;;;7385532;19;20239;-78
2023/08/25 13:47:43;;;;;;;10.10;4.43;;;25.00;85.70;;;;;;7387313;19;20031;-77